サンティアゴ の空港の天気 - METARとTAF

アルトゥーロ・メリノ・ベニテス国際空港(サンティアゴ) ( SCEL / SCL ) - チリ サンティアゴ
飛行場実況気象(Metar)
観測時間09/27 21:00 CLST (09/28 00:00 UTC)
風向・風速南 4m/s
視程10km以上
天気現象
なし
気温17℃
湿度52%
気圧1018hPa
METARSCEL 280000Z 19008KT CAVOK 17/07 Q1018 NOSIG
過去の天気等 Google飛行場航空写真 Wunderground天気予報

過去48時間のMETAR

飛行場予報(TAF)
発表時間: 9/27 19:09 CLST (9/27 22:09 UTC)
予報対象時間: 27日21時 CLST ~ 28日21時 CLST
風向・風速南南西 3m/s
視程10km以上
なし
27日22時 CLST ~ 27日24時 CLST に徐々に
風向・風速南南東 2m/s
28日5時 CLST ~ 28日9時 CLST に一時的に
風向・風速不定 1m/s
視程7000m
なし
28日11時 CLST ~ 28日13時 CLST に徐々に
風向・風速南 4m/s
28日15時 CLST ~ 28日17時 CLST に徐々に
風向・風速南南西 5m/s
TAF SCEL 272209Z 2800/2824 21006KT CAVOK TX24/2819Z TN06/2810Z
BECMG 2801/2803 16004KT
TEMPO 2808/2812 VRB02KT 7000 NSC
BECMG 2814/2816 17008KT
BECMG 2818/2820 21010KT